createdAt,value
2023-02-19T00:02:29.649Z,90.44
2023-02-19T00:05:31.259Z,90.33
2023-02-19T00:08:34.261Z,90.92
2023-02-19T00:11:35.992Z,90.64
2023-02-19T00:14:37.820Z,90.17
2023-02-19T00:17:39.477Z,90.07
2023-02-19T00:20:41.131Z,89.60
2023-02-19T00:23:43.017Z,88.96
2023-02-19T00:26:45.715Z,88.67
2023-02-19T00:29:47.347Z,88.05
2023-02-19T00:32:52.148Z,86.95
2023-02-19T00:35:53.779Z,85.91
2023-02-19T00:38:55.535Z,85.47
2023-02-19T00:41:57.238Z,85.73
2023-02-19T00:44:58.887Z,85.24
2023-02-19T00:48:00.563Z,83.71
2023-02-19T00:51:02.207Z,83.55
2023-02-19T00:54:05.090Z,84.78
2023-02-19T00:57:06.742Z,84.02
2023-02-19T01:00:09.189Z,83.03
2023-02-19T01:03:10.876Z,82.57
2023-02-19T01:06:14.859Z,83.16
2023-02-19T01:09:16.544Z,84.01
2023-02-19T01:12:18.169Z,84.30
2023-02-19T01:15:19.835Z,83.83
2023-02-19T01:18:21.465Z,83.26
2023-02-19T01:21:25.731Z,82.75
2023-02-19T01:24:27.388Z,82.31
2023-02-19T01:27:29.051Z,81.99
2023-02-19T01:30:30.840Z,82.28
2023-02-19T01:33:33.570Z,83.01
2023-02-19T01:36:35.331Z,83.71
2023-02-19T01:39:36.996Z,84.43
2023-02-19T01:42:43.701Z,84.75
2023-02-19T01:45:46.364Z,84.36
2023-02-19T01:48:48.017Z,84.95
2023-02-19T01:51:57.088Z,84.79
2023-02-19T01:55:00.647Z,84.15
2023-02-19T01:58:03.496Z,83.89
2023-02-19T02:01:08.441Z,83.98
2023-02-19T02:04:13.621Z,83.62
2023-02-19T02:07:33.643Z,84.49
2023-02-19T02:10:35.389Z,85.78
2023-02-19T02:13:38.894Z,86.26
2023-02-19T02:16:49.222Z,86.62
2023-02-19T02:20:15.196Z,86.74
2023-02-19T02:23:28.972Z,86.54
2023-02-19T02:26:55.333Z,86.16
2023-02-19T02:30:03.163Z,86.21
2023-02-19T02:33:43.496Z,86.77
2023-02-19T02:36:49.920Z,87.22
2023-02-19T02:39:53.715Z,87.51
2023-02-19T02:42:58.520Z,88.30
2023-02-19T02:46:00.365Z,88.62
2023-02-19T02:49:19.475Z,91.76
2023-02-19T02:52:40.558Z,91.22
2023-02-19T02:55:47.293Z,92.93
2023-02-19T02:58:51.028Z,96.03
2023-02-19T03:02:14.275Z,97.97
2023-02-19T03:05:39.324Z,97.96
2023-02-19T03:08:50.879Z,99.64
2023-02-19T03:12:12.581Z,99.17
2023-02-19T03:15:35.766Z,98.98
2023-02-19T03:19:00.278Z,97.89
2023-02-19T03:22:10.327Z,95.35
2023-02-19T03:25:42.136Z,96.40
2023-02-19T03:29:05.984Z,94.99
2023-02-19T03:32:36.462Z,95.61
2023-02-19T03:36:00.792Z,97.47
2023-02-19T03:39:08.318Z,98.16
2023-02-19T03:42:17.116Z,100.00
2023-02-19T03:45:44.077Z,100.00
2023-02-19T03:48:57.359Z,100.00
2023-02-19T03:52:11.836Z,100.00
2023-02-19T03:55:19.497Z,100.00
2023-02-19T03:58:29.045Z,100.00
2023-02-19T04:01:36.977Z,100.00
2023-02-19T04:04:45.748Z,100.00
2023-02-19T04:07:52.197Z,100.00
2023-02-19T04:10:55.369Z,100.00
2023-02-19T04:14:06.512Z,100.00
2023-02-19T04:17:20.075Z,100.00
2023-02-19T04:20:24.469Z,100.00
2023-02-19T04:23:30.400Z,99.84
2023-02-19T04:26:33.861Z,100.00
2023-02-19T04:29:36.663Z,99.87
2023-02-19T04:32:39.893Z,99.14
2023-02-19T04:35:41.733Z,99.58
2023-02-19T04:38:43.398Z,97.99
2023-02-19T04:41:45.122Z,98.75
2023-02-19T04:44:46.801Z,98.73
2023-02-19T04:47:48.483Z,98.12
2023-02-19T04:50:50.152Z,97.79
2023-02-19T04:53:51.876Z,98.50
2023-02-19T04:56:53.617Z,99.21
2023-02-19T04:59:55.317Z,98.68
2023-02-19T05:02:57.018Z,99.67
2023-02-19T05:06:02.729Z,99.57
2023-02-19T05:09:04.389Z,100.00
2023-02-19T05:12:06.256Z,100.00
2023-02-19T05:15:08.069Z,100.00
2023-02-19T05:18:09.743Z,100.00
2023-02-19T05:21:12.713Z,100.00
2023-02-19T05:24:14.728Z,100.00
2023-02-19T05:27:16.438Z,100.00
2023-02-19T05:30:18.200Z,100.00
2023-02-19T05:33:23.756Z,100.00
2023-02-19T05:36:25.403Z,100.00
2023-02-19T05:39:27.120Z,100.00
2023-02-19T05:42:28.810Z,100.00
2023-02-19T05:45:30.954Z,100.00
2023-02-19T05:48:33.722Z,100.00
2023-02-19T05:51:35.412Z,100.00
2023-02-19T05:54:37.063Z,100.00
2023-02-19T05:57:43.744Z,100.00
2023-02-19T06:00:45.558Z,100.00
2023-02-19T06:03:47.614Z,100.00
2023-02-19T06:06:49.448Z,100.00
2023-02-19T06:09:51.556Z,100.00
2023-02-19T06:12:53.745Z,100.00
2023-02-19T06:15:55.514Z,100.00
2023-02-19T06:18:57.185Z,100.00
2023-02-19T06:21:58.912Z,100.00
2023-02-19T06:25:00.555Z,100.00
2023-02-19T06:28:02.264Z,100.00
2023-02-19T06:31:05.362Z,100.00
2023-02-19T06:34:07.028Z,100.00
2023-02-19T06:37:08.746Z,100.00
2023-02-19T06:40:10.644Z,100.00
2023-02-19T06:43:12.349Z,100.00
2023-02-19T06:46:14.462Z,100.00
2023-02-19T06:49:16.794Z,100.00
2023-02-19T06:52:18.497Z,100.00
2023-02-19T06:55:20.129Z,100.00
2023-02-19T06:58:21.823Z,100.00
2023-02-19T07:01:24.458Z,100.00
2023-02-19T07:04:26.150Z,100.00
2023-02-19T07:07:27.841Z,100.00
2023-02-19T07:10:29.542Z,100.00
2023-02-19T07:13:31.289Z,100.00
2023-02-19T07:16:33.291Z,100.00
2023-02-19T07:19:34.958Z,100.00
2023-02-19T07:22:36.588Z,100.00
2023-02-19T07:25:38.970Z,100.00
2023-02-19T07:28:41.692Z,100.00
2023-02-19T07:31:43.439Z,100.00
2023-02-19T07:34:45.078Z,100.00
2023-02-19T07:37:46.738Z,100.00
2023-02-19T07:40:56.458Z,100.00
2023-02-19T07:43:58.201Z,100.00
2023-02-19T07:46:59.896Z,100.00
2023-02-19T07:50:01.609Z,100.00
2023-02-19T07:53:03.318Z,100.00
2023-02-19T07:56:07.050Z,100.00
2023-02-19T07:59:08.745Z,100.00
2023-02-19T08:02:38.971Z,100.00
2023-02-19T08:05:42.491Z,100.00
2023-02-19T08:08:44.147Z,100.00
2023-02-19T08:12:04.070Z,100.00
2023-02-19T08:15:05.809Z,100.00
2023-02-19T08:18:08.718Z,100.00
2023-02-19T08:21:10.922Z,100.00
2023-02-19T08:24:12.913Z,100.00
2023-02-19T08:27:14.551Z,100.00
2023-02-19T08:30:16.270Z,100.00
2023-02-19T08:33:20.906Z,100.00
2023-02-19T08:36:22.565Z,99.48
2023-02-19T08:39:24.352Z,98.59
2023-02-19T08:42:25.985Z,98.19
2023-02-19T08:45:27.651Z,98.06
2023-02-19T08:48:29.421Z,97.21
2023-02-19T08:51:31.115Z,96.90
2023-02-19T08:54:32.819Z,95.82
2023-02-19T08:57:40.102Z,96.59
2023-02-19T09:00:41.777Z,96.91
2023-02-19T09:03:43.812Z,96.87
2023-02-19T09:06:45.523Z,97.49
2023-02-19T09:09:47.197Z,98.11
2023-02-19T09:12:48.900Z,98.82
2023-02-19T09:15:50.623Z,100.00
2023-02-19T09:18:52.400Z,100.00
2023-02-19T09:21:54.196Z,100.00
2023-02-19T09:24:55.844Z,100.00
2023-02-19T09:27:57.627Z,100.00
2023-02-19T09:31:08.606Z,100.00
2023-02-19T09:34:11.841Z,100.00
2023-02-19T09:37:13.555Z,100.00
2023-02-19T09:40:21.462Z,100.00
2023-02-19T09:43:26.538Z,100.00
2023-02-19T09:46:30.877Z,100.00
2023-02-19T09:49:37.946Z,100.00
2023-02-19T09:52:42.916Z,100.00
2023-02-19T09:55:45.281Z,100.00
2023-02-19T09:58:50.444Z,100.00
2023-02-19T10:02:03.044Z,100.00
2023-02-19T10:05:13.670Z,100.00
2023-02-19T10:08:20.227Z,100.00
2023-02-19T10:11:25.533Z,100.00
2023-02-19T10:14:58.423Z,100.00
2023-02-19T10:18:04.466Z,100.00
2023-02-19T10:21:06.825Z,100.00
2023-02-19T10:24:14.966Z,100.00
2023-02-19T10:27:16.915Z,100.00
2023-02-19T10:30:25.728Z,100.00
2023-02-19T10:33:28.484Z,100.00
2023-02-19T10:36:37.343Z,100.00
2023-02-19T10:39:43.045Z,100.00
2023-02-19T10:42:47.697Z,100.00
2023-02-19T10:45:51.373Z,100.00
2023-02-19T10:48:57.216Z,100.00
2023-02-19T10:52:20.366Z,96.63
2023-02-19T10:55:31.749Z,94.66
2023-02-19T10:58:40.472Z,90.47
2023-02-19T11:02:01.672Z,88.62
2023-02-19T11:05:09.324Z,87.30
2023-02-19T11:08:22.097Z,87.13
2023-02-19T11:11:37.337Z,85.05
2023-02-19T11:14:43.272Z,86.47
2023-02-19T11:17:45.587Z,87.32
2023-02-19T11:20:57.493Z,88.12
2023-02-19T11:24:04.666Z,88.39
2023-02-19T11:27:17.552Z,88.79
2023-02-19T11:30:35.268Z,88.16
2023-02-19T11:33:44.784Z,88.68
2023-02-19T11:36:47.558Z,88.57
2023-02-19T11:39:51.553Z,87.04
2023-02-19T11:43:21.549Z,84.27
2023-02-19T11:46:55.456Z,82.42
2023-02-19T11:50:13.678Z,81.72
2023-02-19T11:53:29.019Z,80.16
2023-02-19T11:56:39.099Z,78.60
2023-02-19T12:00:12.886Z,76.73
2023-02-19T12:04:02.425Z,77.12
2023-02-19T12:07:27.054Z,75.48
2023-02-19T12:10:45.467Z,75.04
2023-02-19T12:14:07.244Z,72.78
2023-02-19T12:17:27.327Z,70.06
2023-02-19T12:20:44.148Z,68.64
2023-02-19T12:24:19.945Z,69.83
2023-02-19T12:27:40.623Z,69.14
2023-02-19T12:30:55.036Z,69.00
2023-02-19T12:34:18.508Z,68.29
2023-02-19T12:37:47.708Z,67.21
2023-02-19T12:41:04.191Z,63.41
2023-02-19T12:44:28.145Z,58.98
2023-02-19T12:47:37.234Z,56.61
2023-02-19T12:50:40.889Z,56.96
2023-02-19T12:53:51.244Z,55.65
2023-02-19T12:57:12.256Z,55.81
2023-02-19T13:00:31.558Z,56.37
2023-02-19T13:04:05.806Z,54.40
2023-02-19T13:07:16.252Z,54.90
2023-02-19T13:10:41.685Z,54.89
2023-02-19T13:14:00.143Z,54.15
2023-02-19T13:17:13.611Z,53.88
2023-02-19T13:20:23.892Z,53.95
2023-02-19T13:23:49.866Z,52.83
2023-02-19T13:27:13.362Z,52.34
2023-02-19T13:30:39.067Z,51.83
2023-02-19T13:33:47.515Z,52.52
2023-02-19T13:36:50.492Z,52.74
2023-02-19T13:39:54.963Z,54.72
2023-02-19T13:43:02.705Z,63.41
2023-02-19T13:46:13.231Z,63.48
2023-02-19T13:49:34.067Z,61.62
2023-02-19T13:52:40.565Z,60.01
2023-02-19T13:55:51.045Z,56.94
2023-02-19T13:58:58.214Z,56.07
2023-02-19T14:02:03.529Z,54.89
2023-02-19T14:05:14.609Z,53.00
2023-02-19T14:08:46.803Z,51.59
2023-02-19T14:11:49.291Z,47.43
2023-02-19T14:14:56.197Z,49.07
2023-02-19T14:17:59.033Z,51.15
2023-02-19T14:21:23.053Z,50.79
2023-02-19T14:24:26.040Z,57.29
2023-02-19T14:27:28.163Z,61.94
2023-02-19T14:30:33.290Z,65.47
2023-02-19T14:33:40.253Z,67.14
2023-02-19T14:36:50.462Z,68.33
2023-02-19T14:39:54.944Z,67.98
2023-02-19T14:43:01.140Z,67.63
2023-02-19T14:46:24.757Z,68.50
2023-02-19T14:49:51.302Z,70.05
2023-02-19T14:52:58.643Z,73.05
2023-02-19T14:56:00.895Z,75.01
2023-02-19T14:59:30.168Z,76.13
2023-02-19T15:02:33.302Z,75.29
2023-02-19T15:05:38.101Z,75.49
2023-02-19T15:08:44.728Z,76.26
2023-02-19T15:11:47.815Z,76.81
2023-02-19T15:14:53.882Z,76.61
2023-02-19T15:17:59.481Z,71.88
2023-02-19T15:21:04.077Z,67.82
2023-02-19T15:24:07.960Z,66.41
2023-02-19T15:27:20.399Z,65.98
2023-02-19T15:30:29.986Z,71.03
2023-02-19T15:33:33.050Z,72.35
2023-02-19T15:36:38.648Z,71.16
2023-02-19T15:39:45.803Z,67.67
2023-02-19T15:42:48.660Z,65.89
2023-02-19T15:45:54.977Z,69.27
2023-02-19T15:49:20.010Z,68.75
2023-02-19T15:52:32.605Z,68.64
2023-02-19T15:55:49.996Z,69.56
2023-02-19T15:59:00.014Z,68.87
2023-02-19T16:02:04.234Z,69.42
2023-02-19T16:05:25.665Z,70.54
2023-02-19T16:08:37.235Z,70.96
2023-02-19T16:11:48.366Z,72.51
2023-02-19T16:14:54.145Z,74.00
2023-02-19T16:17:58.179Z,75.84
2023-02-19T16:21:04.676Z,76.21
2023-02-19T16:24:27.350Z,77.28
2023-02-19T16:27:42.547Z,77.62
2023-02-19T16:30:45.445Z,78.22
2023-02-19T16:33:49.270Z,79.76
2023-02-19T16:36:52.683Z,80.30
2023-02-19T16:40:33.986Z,81.56
2023-02-19T16:43:42.968Z,81.36
2023-02-19T16:46:45.793Z,82.07
2023-02-19T16:49:48.348Z,82.49
2023-02-19T16:52:54.013Z,83.05
2023-02-19T16:55:57.100Z,83.40
2023-02-19T16:59:00.005Z,83.91
2023-02-19T17:02:06.132Z,84.31
2023-02-19T17:05:10.163Z,84.49
2023-02-19T17:08:42.870Z,85.29
2023-02-19T17:11:45.358Z,86.22
2023-02-19T17:14:48.339Z,86.03
2023-02-19T17:17:50.668Z,86.39
2023-02-19T17:21:21.084Z,86.87
2023-02-19T17:24:25.049Z,87.01
2023-02-19T17:27:27.918Z,87.75
2023-02-19T17:30:32.539Z,88.34
2023-02-19T17:33:34.759Z,88.03
2023-02-19T17:36:39.151Z,87.36
2023-02-19T17:39:41.967Z,87.50
2023-02-19T17:42:47.080Z,87.58
2023-02-19T17:45:50.018Z,87.70
2023-02-19T17:48:54.165Z,87.34
2023-02-19T17:51:57.144Z,86.03
2023-02-19T17:55:00.988Z,85.25
2023-02-19T17:58:04.156Z,86.06
2023-02-19T18:01:07.068Z,86.72
2023-02-19T18:04:09.431Z,87.56
2023-02-19T18:07:12.304Z,87.72
2023-02-19T18:10:18.378Z,87.72
2023-02-19T18:13:21.059Z,88.73
2023-02-19T18:16:24.193Z,89.89
2023-02-19T18:19:26.484Z,90.40
2023-02-19T18:22:29.101Z,90.67
2023-02-19T18:25:31.905Z,90.77
2023-02-19T18:28:35.406Z,89.62
2023-02-19T18:31:38.021Z,90.05
2023-02-19T18:34:41.490Z,90.02
2023-02-19T18:37:46.559Z,89.78
2023-02-19T18:40:50.886Z,89.49
2023-02-19T18:43:53.888Z,89.02
2023-02-19T18:47:00.172Z,88.44
2023-02-19T18:50:02.720Z,88.69
2023-02-19T18:53:06.469Z,88.99
2023-02-19T18:56:09.820Z,88.04
2023-02-19T18:59:14.410Z,87.93
2023-02-19T19:02:18.066Z,87.65
2023-02-19T19:05:23.138Z,88.37
2023-02-19T19:08:27.463Z,88.40
2023-02-19T19:11:31.021Z,88.59
2023-02-19T19:14:34.043Z,88.97
2023-02-19T19:17:38.282Z,88.93
2023-02-19T19:20:41.214Z,89.31
2023-02-19T19:23:44.238Z,89.87
2023-02-19T19:26:47.704Z,90.65
2023-02-19T19:29:51.110Z,91.20
2023-02-19T19:32:54.057Z,91.79
2023-02-19T19:35:56.773Z,92.28
2023-02-19T19:38:59.838Z,93.22
2023-02-19T19:42:05.781Z,92.97
2023-02-19T19:45:11.126Z,93.61
2023-02-19T19:48:14.561Z,94.60
2023-02-19T19:51:18.214Z,95.49
2023-02-19T19:54:22.023Z,96.37
2023-02-19T19:57:24.795Z,96.79
2023-02-19T20:00:29.484Z,96.57
2023-02-19T20:03:33.784Z,96.82
2023-02-19T20:06:36.477Z,97.08
2023-02-19T20:09:39.427Z,97.42
2023-02-19T20:12:42.194Z,97.41
2023-02-19T20:15:44.800Z,97.44
2023-02-19T20:18:47.465Z,97.46
2023-02-19T20:21:54.005Z,97.36
2023-02-19T20:24:56.854Z,97.33
2023-02-19T20:27:59.755Z,97.13
2023-02-19T20:31:02.891Z,97.18
2023-02-19T20:34:07.222Z,97.65
2023-02-19T20:37:10.899Z,97.91
2023-02-19T20:40:14.799Z,98.19
2023-02-19T20:43:18.423Z,98.21
2023-02-19T20:46:21.315Z,97.73
2023-02-19T20:49:26.691Z,96.86
2023-02-19T20:52:29.613Z,96.39
2023-02-19T20:55:36.336Z,95.94
2023-02-19T20:58:43.614Z,94.37
2023-02-19T21:01:47.886Z,93.87
2023-02-19T21:04:50.894Z,93.53
2023-02-19T21:07:55.667Z,93.06
2023-02-19T21:10:58.884Z,91.64
2023-02-19T21:14:01.688Z,91.51
2023-02-19T21:17:04.652Z,91.04
2023-02-19T21:20:08.217Z,90.19
2023-02-19T21:23:10.741Z,90.12
2023-02-19T21:26:13.420Z,88.19
2023-02-19T21:29:19.340Z,86.70
2023-02-19T21:32:26.998Z,86.46
2023-02-19T21:35:29.479Z,86.54
2023-02-19T21:38:32.681Z,85.30
2023-02-19T21:41:34.838Z,84.80
2023-02-19T21:44:36.760Z,83.49
2023-02-19T21:47:39.170Z,81.82
2023-02-19T21:50:48.183Z,82.77
2023-02-19T21:53:50.326Z,80.80
2023-02-19T21:56:53.892Z,80.36
2023-02-19T21:59:55.630Z,79.10
2023-02-19T22:02:57.572Z,77.89
2023-02-19T22:06:02.331Z,78.36
2023-02-19T22:09:04.116Z,77.92
2023-02-19T22:12:05.910Z,78.45
2023-02-19T22:15:07.971Z,78.51
2023-02-19T22:18:09.632Z,79.10
2023-02-19T22:21:11.335Z,78.59
2023-02-19T22:24:18.482Z,76.66
2023-02-19T22:27:20.207Z,75.84
2023-02-19T22:30:22.194Z,72.71
2023-02-19T22:33:23.881Z,71.09
2023-02-19T22:36:28.447Z,71.95
2023-02-19T22:39:30.271Z,72.39
2023-02-19T22:42:31.963Z,72.75
2023-02-19T22:45:33.647Z,72.72
2023-02-19T22:48:35.304Z,71.87
2023-02-19T22:51:37.069Z,72.10
2023-02-19T22:54:39.491Z,72.59
2023-02-19T22:57:41.163Z,72.28
2023-02-19T23:00:42.822Z,72.57
2023-02-19T23:03:46.797Z,72.22
2023-02-19T23:06:48.660Z,71.44
2023-02-19T23:09:50.336Z,69.75
2023-02-19T23:12:51.990Z,69.09
2023-02-19T23:15:53.684Z,66.31
2023-02-19T23:18:55.594Z,65.58
2023-02-19T23:21:57.391Z,64.50
2023-02-19T23:24:59.026Z,64.27
2023-02-19T23:28:00.796Z,64.28
2023-02-19T23:31:02.660Z,63.98
2023-02-19T23:34:04.362Z,63.21
2023-02-19T23:37:06.729Z,62.47
2023-02-19T23:40:08.883Z,61.62
2023-02-19T23:43:10.533Z,60.80
2023-02-19T23:46:17.641Z,61.43
2023-02-19T23:49:19.797Z,61.18
2023-02-19T23:52:21.624Z,61.61
2023-02-19T23:55:23.401Z,62.25
2023-02-19T23:58:25.075Z,62.07
